Time;durP1;ratioP1;P1;durP2;ratioP2;P2;SDS_P1;SDS_P2;PMS_P1;PMS_P2;Temp;Humidity;BMP_temperature;BMP_pressure;BME280_temperature;BME280_humidity;BME280_pressure;Samples;Min_cycle;Max_cycle;Signal;HPM_P1;HPM_P2
2022/05/12 00:01:03;;;;;;;;;;;;;;;11.47;100.00;98686.47;5095852;28;20363;-81
2022/05/12 00:03:30;;;;;;;;;;;;;;;11.64;100.00;98691.66;5096363;28;19924;-80
2022/05/12 00:05:57;;;;;;;;;;;;;;;11.92;100.00;98699.31;5096236;28;19924;-80
2022/05/12 00:08:24;;;;;;;;;;;;;;;11.89;100.00;98710.63;5077945;28;19977;-80
2022/05/12 00:10:51;;;;;;;;;;;;;;;11.96;100.00;98708.41;5077494;28;19924;-80
2022/05/12 00:13:18;;;;;;;;;;;;;;;11.93;100.00;98709.28;5078123;28;20294;-81
2022/05/12 00:15:45;;;;;;;;;;;;;;;11.94;100.00;98722.06;5061421;28;19924;-81
2022/05/12 00:18:12;;;;;;;;;;;;;;;12.16;100.00;98728.63;5077997;28;19931;-81
2022/05/12 00:20:39;;;;;;;;;;;;;;;12.09;100.00;98728.84;5057447;28;19932;-81
2022/05/12 00:23:07;;;;;;;;;;;;;;;11.95;100.00;98746.00;5066289;28;19931;-80
2022/05/12 00:25:34;;;;;;;;;;;;;;;12.01;100.00;98746.28;5060672;28;19924;-80
2022/05/12 00:28:01;;;;;;;;;;;;;;;11.86;100.00;98748.66;5095632;28;19924;-81
2022/05/12 00:30:28;;;;;;;;;;;;;;;11.87;100.00;98744.66;5075095;28;19925;-81
2022/05/12 00:32:55;;;;;;;;;;;;;;;12.00;100.00;98742.69;5041189;28;19925;-81
2022/05/12 00:35:22;;;;;;;;;;;;;;;12.02;100.00;98745.84;5088365;28;20443;-81
2022/05/12 00:37:49;;;;;;;;;;;;;;;12.13;100.00;98746.31;5075543;28;19924;-81
2022/05/12 00:40:19;;;;;;;;;;;;;;;11.95;100.00;98751.63;5090465;28;19924;-81
2022/05/12 00:42:56;;;;;;;;;;;;;;;12.15;100.00;98755.06;5072550;28;19974;-81
2022/05/12 00:45:24;;;;;;;;;;;;;;;12.15;100.00;98757.09;5077524;28;19931;-81
2022/05/12 00:47:51;;;;;;;;;;;;;;;11.82;100.00;98764.75;5040447;28;19925;-81
2022/05/12 00:50:21;;;;;;;;;;;;;;;11.88;100.00;98767.81;5076964;28;19928;-81
2022/05/12 00:52:48;;;;;;;;;;;;;;;11.97;100.00;98771.56;5095431;28;19928;-81
2022/05/12 00:55:20;;;;;;;;;;;;;;;11.92;100.00;98777.69;5076188;28;19924;-81
2022/05/12 00:57:53;;;;;;;;;;;;;;;11.94;100.00;98778.06;5077260;28;19977;-81
2022/05/12 01:00:21;;;;;;;;;;;;;;;11.76;100.00;98782.50;5094687;28;19973;-80
2022/05/12 01:02:50;;;;;;;;;;;;;;;11.82;100.00;98778.75;5094981;28;20007;-81
2022/05/12 01:05:17;;;;;;;;;;;;;;;11.97;100.00;98788.38;5077377;28;19950;-81
2022/05/12 01:07:44;;;;;;;;;;;;;;;11.50;100.00;98792.72;5094622;28;20030;-81
2022/05/12 01:10:12;;;;;;;;;;;;;;;11.89;100.00;98794.59;5094796;28;19924;-81
2022/05/12 01:12:40;;;;;;;;;;;;;;;11.90;100.00;98787.75;5076661;28;19939;-81
2022/05/12 01:15:08;;;;;;;;;;;;;;;11.81;100.00;98784.78;5094967;28;19928;-81
2022/05/12 01:17:35;;;;;;;;;;;;;;;11.73;100.00;98795.38;5094554;28;19946;-81
2022/05/12 01:20:02;;;;;;;;;;;;;;;12.04;100.00;98790.22;5058901;28;19924;-81
2022/05/12 01:22:48;;;;;;;;;;;;;;;11.94;100.00;98794.06;5076566;28;19924;-81
2022/05/12 01:25:18;;;;;;;;;;;;;;;12.28;100.00;98792.31;5092379;28;19932;-81
2022/05/12 01:27:45;;;;;;;;;;;;;;;12.14;100.00;98795.53;5076144;28;19924;-81
2022/05/12 01:30:14;;;;;;;;;;;;;;;11.95;100.00;98799.22;5059699;28;19924;-81
2022/05/12 01:32:43;;;;;;;;;;;;;;;12.33;100.00;98791.00;5076264;28;20298;-81
2022/05/12 01:35:11;;;;;;;;;;;;;;;12.24;100.00;98788.84;5076761;28;19963;-80
2022/05/12 01:37:40;;;;;;;;;;;;;;;12.42;100.00;98791.16;5093956;28;20383;-81
2022/05/12 01:40:07;;;;;;;;;;;;;;;12.25;100.00;98790.41;5076282;28;19925;-80
2022/05/12 01:42:34;;;;;;;;;;;;;;;12.35;100.00;98806.16;5094310;28;19924;-80
2022/05/12 01:45:03;;;;;;;;;;;;;;;12.32;100.00;98804.25;5094405;28;20302;-80
2022/05/12 01:47:30;;;;;;;;;;;;;;;12.26;100.00;98800.41;5075895;28;19965;-80
2022/05/12 01:49:57;;;;;;;;;;;;;;;12.27;100.00;98801.16;5075624;28;19931;-80
2022/05/12 01:52:24;;;;;;;;;;;;;;;12.09;100.00;98801.66;5093743;28;19932;-80
2022/05/12 01:54:52;;;;;;;;;;;;;;;12.47;100.00;98799.81;5075745;28;19931;-80
2022/05/12 01:57:19;;;;;;;;;;;;;;;12.38;100.00;98796.88;5075905;28;19931;-80
2022/05/12 01:59:47;;;;;;;;;;;;;;;12.72;100.00;98799.13;5075878;28;20337;-80
2022/05/12 02:02:15;;;;;;;;;;;;;;;12.63;100.00;98790.56;5093378;28;19977;-80
2022/05/12 02:04:42;;;;;;;;;;;;;;;12.48;100.00;98801.38;5059378;28;19924;-80
2022/05/12 02:07:09;;;;;;;;;;;;;;;12.59;100.00;98796.28;5074939;28;20005;-80
2022/05/12 02:09:36;;;;;;;;;;;;;;;12.50;100.00;98796.13;5082378;28;19924;-80
2022/05/12 02:12:03;;;;;;;;;;;;;;;12.66;100.00;98798.09;5073786;28;20330;-80
2022/05/12 02:14:31;;;;;;;;;;;;;;;12.42;100.00;98800.34;5085545;28;20306;-80
2022/05/12 02:16:58;;;;;;;;;;;;;;;12.56;100.00;98802.75;5075285;28;19947;-80
2022/05/12 02:19:27;;;;;;;;;;;;;;;12.72;100.00;98804.72;5093577;28;19924;-80
2022/05/12 02:22:00;;;;;;;;;;;;;;;12.55;100.00;98806.81;5093095;28;19931;-80
2022/05/12 02:24:27;;;;;;;;;;;;;;;12.69;100.00;98805.63;5092674;28;19924;-80
2022/05/12 02:26:56;;;;;;;;;;;;;;;12.73;100.00;98809.91;5075357;28;20006;-80
2022/05/12 02:29:23;;;;;;;;;;;;;;;12.54;100.00;98799.59;5093478;28;19926;-81
2022/05/12 02:31:51;;;;;;;;;;;;;;;12.57;100.00;98809.16;5075386;28;19924;-80
2022/05/12 02:34:18;;;;;;;;;;;;;;;12.68;100.00;98809.63;5075039;28;19924;-80
2022/05/12 02:36:59;;;;;;;;;;;;;;;12.77;100.00;98809.78;5058419;28;19924;-81
2022/05/12 02:39:30;;;;;;;;;;;;;;;12.77;100.00;98807.75;5093161;28;19925;-80
2022/05/12 02:41:57;;;;;;;;;;;;;;;12.60;100.00;98809.03;5092954;28;19947;-80
2022/05/12 02:44:25;;;;;;;;;;;;;;;11.89;100.00;98820.56;5097568;28;19931;-80
2022/05/12 02:46:52;;;;;;;;;;;;;;;12.09;100.00;98826.06;5097091;28;20103;-80
2022/05/12 02:49:19;;;;;;;;;;;;;;;12.18;100.00;98829.81;5092613;28;19925;-80
2022/05/12 02:51:47;;;;;;;;;;;;;;;12.20;100.00;98829.38;5074513;28;19931;-80
2022/05/12 02:54:17;;;;;;;;;;;;;;;12.24;100.00;98830.06;5093273;28;20015;-80
2022/05/12 02:56:44;;;;;;;;;;;;;;;12.10;100.00;98825.63;5038077;28;19924;-80
2022/05/12 02:59:11;;;;;;;;;;;;;;;12.29;100.00;98824.72;5072954;28;19933;-80
2022/05/12 03:01:38;;;;;;;;;;;;;;;12.45;100.00;98821.88;5066802;28;19932;-80
2022/05/12 03:04:05;;;;;;;;;;;;;;;12.42;100.00;98821.97;5108604;28;19924;-80
2022/05/12 03:06:32;;;;;;;;;;;;;;;12.30;100.00;98822.69;5093068;28;20399;-80
2022/05/12 03:08:59;;;;;;;;;;;;;;;12.11;100.00;98816.00;5092978;28;19928;-80
2022/05/12 03:11:28;;;;;;;;;;;;;;;12.17;100.00;98821.84;5092658;28;20382;-80
2022/05/12 03:13:55;;;;;;;;;;;;;;;12.03;100.00;98822.22;5075103;28;19931;-80
2022/05/12 03:16:23;;;;;;;;;;;;;;;11.56;100.00;98824.53;5092965;28;19924;-81
2022/05/12 03:18:51;;;;;;;;;;;;;;;11.75;100.00;98832.13;5058546;28;19974;-80
2022/05/12 03:21:18;;;;;;;;;;;;;;;11.57;100.00;98836.53;5080504;28;20404;-80
2022/05/12 03:23:45;;;;;;;;;;;;;;;11.91;100.00;98832.13;5079196;28;19931;-80
2022/05/12 03:26:13;;;;;;;;;;;;;;;12.02;100.00;98829.84;5078077;28;19924;-80
2022/05/12 03:28:40;;;;;;;;;;;;;;;11.97;100.00;98833.16;5096590;28;19930;-80
2022/05/12 03:31:11;;;;;;;;;;;;;;;11.99;100.00;98830.72;5078995;28;19935;-80
2022/05/12 03:33:39;;;;;;;;;;;;;;;12.27;100.00;98827.19;5107131;28;19925;-80
2022/05/12 03:36:07;;;;;;;;;;;;;;;12.29;100.00;98832.34;5076632;28;20364;-81
2022/05/12 03:38:34;;;;;;;;;;;;;;;12.43;100.00;98824.34;5080442;28;19924;-80
2022/05/12 03:41:01;;;;;;;;;;;;;;;12.32;100.00;98828.66;5096758;28;20030;-80
2022/05/12 03:46:14;;;;;;;;;;;;;;;12.02;100.00;98824.25;5096618;28;20390;-80
2022/05/12 03:48:41;;;;;;;;;;;;;;;12.27;100.00;98827.19;5096375;28;19935;-80
2022/05/12 03:51:09;;;;;;;;;;;;;;;12.48;100.00;98826.59;5096610;28;19924;-80
2022/05/12 03:53:37;;;;;;;;;;;;;;;12.19;100.00;98825.78;5078493;28;19924;-80
2022/05/12 03:56:04;;;;;;;;;;;;;;;12.18;100.00;98824.22;5044944;28;19931;-80
2022/05/12 03:58:33;;;;;;;;;;;;;;;11.66;100.00;98837.53;5096130;28;19939;-80
2022/05/12 04:01:00;;;;;;;;;;;;;;;11.70;100.00;98835.44;5096469;28;20070;-80
2022/05/12 04:03:27;;;;;;;;;;;;;;;11.91;100.00;98829.31;5096102;28;19924;-80
2022/05/12 04:05:57;;;;;;;;;;;;;;;11.94;100.00;98828.44;5111930;28;19924;-80
2022/05/12 04:08:24;;;;;;;;;;;;;;;12.08;100.00;98833.69;5078393;28;20272;-80
2022/05/12 04:10:51;;;;;;;;;;;;;;;12.09;100.00;98835.25;5095886;28;19928;-80
2022/05/12 04:13:18;;;;;;;;;;;;;;;11.71;100.00;98837.00;5096124;28;20261;-80
2022/05/12 04:15:46;;;;;;;;;;;;;;;11.60;100.00;98844.81;5078200;28;20303;-80
2022/05/12 04:18:13;;;;;;;;;;;;;;;11.77;100.00;98843.66;5077776;28;19924;-80
2022/05/12 04:20:40;;;;;;;;;;;;;;;11.96;100.00;98842.00;5095730;28;19928;-80
2022/05/12 04:23:08;;;;;;;;;;;;;;;12.01;100.00;98845.06;5096081;28;19924;-80
2022/05/12 04:25:35;;;;;;;;;;;;;;;11.95;100.00;98846.81;5077697;28;19931;-80
2022/05/12 04:28:03;;;;;;;;;;;;;;;11.91;100.00;98846.13;5095461;28;19931;-80
2022/05/12 04:30:31;;;;;;;;;;;;;;;12.00;100.00;98840.69;5077327;28;19970;-80
2022/05/12 04:35:44;;;;;;;;;;;;;;;11.98;100.00;98859.94;5095838;28;19951;-80
2022/05/12 04:38:11;;;;;;;;;;;;;;;12.09;100.00;98863.25;5095327;28;20276;-80
2022/05/12 04:40:38;;;;;;;;;;;;;;;11.97;100.00;98857.56;5076582;28;19931;-80
2022/05/12 04:43:06;;;;;;;;;;;;;;;12.06;100.00;98858.53;5095858;28;19924;-80
2022/05/12 04:45:33;;;;;;;;;;;;;;;11.63;100.00;98857.97;5077241;28;19931;-80
2022/05/12 04:48:01;;;;;;;;;;;;;;;11.78;100.00;98867.66;5095122;28;19946;-80
2022/05/12 04:50:30;;;;;;;;;;;;;;;11.74;100.00;98869.72;5077623;28;19924;-80
2022/05/12 04:52:57;;;;;;;;;;;;;;;11.84;100.00;98871.50;5077424;28;20310;-80
2022/05/12 04:55:25;;;;;;;;;;;;;;;11.64;100.00;98876.38;5095286;28;19924;-80
2022/05/12 04:57:55;;;;;;;;;;;;;;;11.75;100.00;98876.91;5076907;28;19928;-80
2022/05/12 05:00:24;;;;;;;;;;;;;;;12.08;100.00;98883.31;5043779;28;19928;-80
2022/05/12 05:02:51;;;;;;;;;;;;;;;12.15;100.00;98886.72;5095163;28;19924;-80
2022/05/12 05:05:18;;;;;;;;;;;;;;;12.08;100.00;98877.69;5095047;28;19924;-80
2022/05/12 05:07:45;;;;;;;;;;;;;;;11.98;100.00;98890.72;5056861;28;20441;-80
2022/05/12 05:10:14;;;;;;;;;;;;;;;12.01;100.00;98901.06;5073813;28;19924;-80
2022/05/12 05:12:41;;;;;;;;;;;;;;;11.32;100.00;98893.03;5074826;28;19931;-80
2022/05/12 05:15:10;;;;;;;;;;;;;;;11.39;100.00;98900.50;5056809;28;19981;-80
2022/05/12 05:17:38;;;;;;;;;;;;;;;11.46;100.00;98906.72;5066114;28;19924;-80
2022/05/12 05:20:07;;;;;;;;;;;;;;;11.47;100.00;98911.09;5076918;28;19924;-80
2022/05/12 05:22:35;;;;;;;;;;;;;;;11.84;100.00;98913.50;5076960;28;19925;-80
2022/05/12 05:25:03;;;;;;;;;;;;;;;12.04;100.00;98911.38;5095091;28;19963;-80
2022/05/12 05:27:30;;;;;;;;;;;;;;;12.14;100.00;98921.56;5076974;28;20001;-80
2022/05/12 05:29:58;;;;;;;;;;;;;;;12.20;100.00;98924.59;5056054;28;20338;-80
2022/05/12 05:32:27;;;;;;;;;;;;;;;12.29;100.00;98925.59;5089880;28;19931;-80
2022/05/12 05:34:54;;;;;;;;;;;;;;;11.97;100.00;98922.75;5056624;28;19970;-80
2022/05/12 05:37:22;;;;;;;;;;;;;;;12.10;100.00;98926.44;5056597;28;19930;-80
2022/05/12 05:39:51;;;;;;;;;;;;;;;12.12;100.00;98931.59;5077135;28;19924;-80
2022/05/12 05:42:19;;;;;;;;;;;;;;;11.78;100.00;98929.22;5094082;28;19925;-80
2022/05/12 05:44:48;;;;;;;;;;;;;;;11.97;100.00;98939.56;5076025;28;19927;-80
2022/05/12 05:47:16;;;;;;;;;;;;;;;11.94;100.00;98936.84;5076382;28;19924;-80
2022/05/12 05:49:43;;;;;;;;;;;;;;;12.04;100.00;98945.00;5076519;28;19962;-80
2022/05/12 05:54:56;;;;;;;;;;;;;;;12.26;100.00;98939.66;5075727;28;19924;-80
2022/05/12 05:57:24;;;;;;;;;;;;;;;12.33;100.00;98945.88;5094099;28;19950;-80
2022/05/12 05:59:52;;;;;;;;;;;;;;;12.64;100.00;98935.88;5094163;28;20299;-80
2022/05/12 06:02:21;;;;;;;;;;;;;;;12.44;100.00;98940.81;5072445;28;20376;-80
2022/05/12 06:04:48;;;;;;;;;;;;;;;12.52;100.00;98947.81;5073247;28;19955;-80
2022/05/12 06:07:15;;;;;;;;;;;;;;;12.34;100.00;98955.09;5072406;28;19924;-80
2022/05/12 06:09:43;;;;;;;;;;;;;;;12.50;100.00;98958.66;5089441;28;19955;-80
2022/05/12 06:12:10;;;;;;;;;;;;;;;12.65;100.00;98957.06;5073492;28;19931;-80
2022/05/12 06:14:38;;;;;;;;;;;;;;;12.97;100.00;98956.22;5072977;28;19931;-80
2022/05/12 06:17:05;;;;;;;;;;;;;;;12.52;100.00;98966.63;5072494;28;20319;-80
2022/05/12 06:19:32;;;;;;;;;;;;;;;12.19;100.00;98970.66;5073537;28;19928;-80
2022/05/12 06:22:00;;;;;;;;;;;;;;;12.23;100.00;98976.97;5070419;28;19924;-80
2022/05/12 06:24:27;;;;;;;;;;;;;;;12.69;100.00;98974.59;5071966;28;20356;-80
2022/05/12 06:26:54;;;;;;;;;;;;;;;12.62;100.00;98983.19;5071789;28;19925;-81
2022/05/12 06:29:21;;;;;;;;;;;;;;;12.51;100.00;98965.84;5073415;28;20387;-80
2022/05/12 06:31:48;;;;;;;;;;;;;;;12.16;100.00;98983.50;5073050;28;19991;-80
2022/05/12 06:34:16;;;;;;;;;;;;;;;12.48;100.00;98980.72;5073184;28;19931;-80
2022/05/12 06:36:44;;;;;;;;;;;;;;;12.60;100.00;98982.81;5072041;28;19936;-80
2022/05/12 06:39:11;;;;;;;;;;;;;;;12.60;100.00;98985.63;5071989;28;20309;-80
2022/05/12 06:41:38;;;;;;;;;;;;;;;12.50;100.00;98988.69;5071962;28;20386;-80
2022/05/12 06:44:05;;;;;;;;;;;;;;;12.76;100.00;98982.03;5071953;28;19924;-81
2022/05/12 06:46:33;;;;;;;;;;;;;;;13.20;100.00;98986.06;5071862;28;19928;-80
2022/05/12 06:49:02;;;;;;;;;;;;;;;13.27;100.00;98997.13;5072067;28;20170;-81
2022/05/12 06:51:29;;;;;;;;;;;;;;;13.13;100.00;98992.66;5038219;28;19970;-80
2022/05/12 06:53:56;;;;;;;;;;;;;;;13.18;100.00;98985.72;5071349;28;20407;-80
2022/05/12 06:56:24;;;;;;;;;;;;;;;13.42;100.00;98989.88;5096283;28;19924;-80
2022/05/12 06:58:51;;;;;;;;;;;;;;;13.38;100.00;98986.38;5053123;28;19925;-80
2022/05/12 07:01:19;;;;;;;;;;;;;;;12.85;100.00;98998.22;5066282;28;19960;-80
2022/05/12 07:03:49;;;;;;;;;;;;;;;13.18;100.00;98996.94;5058128;28;20459;-80
2022/05/12 07:06:16;;;;;;;;;;;;;;;12.85;100.00;98998.22;5092924;28;20002;-80
2022/05/12 07:08:43;;;;;;;;;;;;;;;13.13;100.00;98995.47;5075308;28;19991;-80
2022/05/12 07:11:11;;;;;;;;;;;;;;;13.09;100.00;99002.41;5075139;28;19925;-80
2022/05/12 07:13:38;;;;;;;;;;;;;;;13.17;100.00;99006.59;5093053;28;19924;-80
2022/05/12 07:16:06;;;;;;;;;;;;;;;12.80;100.00;99007.94;5092959;28;19946;-80
2022/05/12 07:18:34;;;;;;;;;;;;;;;13.15;100.00;99014.66;5074259;28;19935;-80
2022/05/12 07:26:47;;;;;;;;;;;;;;;13.26;100.00;99013.16;5074859;28;20364;-80
2022/05/12 07:29:16;;;;;;;;;;;;;;;12.86;100.00;99019.44;5073882;28;19935;-80
2022/05/12 07:31:43;;;;;;;;;;;;;;;12.71;100.00;99011.38;5083486;28;20613;-80
2022/05/12 07:34:12;;;;;;;;;;;;;;;13.03;100.00;99015.38;5069032;28;19931;-80
2022/05/12 07:36:42;;;;;;;;;;;;;;;13.36;100.00;99022.53;5074923;28;19935;-80
2022/05/12 07:39:12;;;;;;;;;;;;;;;13.54;100.00;99017.19;5092697;28;19924;-80
2022/05/12 07:41:41;;;;;;;;;;;;;;;13.89;100.00;99018.94;5092769;28;19959;-80
2022/05/12 07:44:09;;;;;;;;;;;;;;;14.02;100.00;99020.56;5091968;28;19924;-80
2022/05/12 07:46:40;;;;;;;;;;;;;;;14.19;100.00;99021.25;5092951;28;19928;-80
2022/05/12 07:49:08;;;;;;;;;;;;;;;14.17;100.00;99024.50;5075386;28;19927;-79
2022/05/12 07:51:35;;;;;;;;;;;;;;;13.64;100.00;99021.72;5092932;28;19924;-79
2022/05/12 07:54:03;;;;;;;;;;;;;;;13.92;100.00;99023.66;5092131;28;19931;-80
2022/05/12 07:56:31;;;;;;;;;;;;;;;13.57;100.00;99024.72;5085458;28;19925;-81
2022/05/12 07:58:59;;;;;;;;;;;;;;;13.51;100.00;99048.97;5090101;28;20470;-80
2022/05/12 08:01:29;;;;;;;;;;;;;;;13.94;100.00;99030.44;5052373;28;19932;-81
2022/05/12 08:03:56;;;;;;;;;;;;;;;14.38;100.00;99021.06;5088869;28;20391;-80
2022/05/12 08:06:24;;;;;;;;;;;;;;;14.25;100.00;99028.69;5078225;28;19928;-80
2022/05/12 08:08:51;;;;;;;;;;;;;;;14.27;100.00;99029.03;5077654;28;19924;-80
2022/05/12 08:11:19;;;;;;;;;;;;;;;14.91;100.00;99030.56;5074058;28;19924;-82
2022/05/12 08:13:47;;;;;;;;;;;;;;;15.05;100.00;99029.28;5096290;28;19931;-81
2022/05/12 08:16:16;;;;;;;;;;;;;;;15.37;100.00;99023.31;5070202;28;20303;-81
2022/05/12 08:18:45;;;;;;;;;;;;;;;15.04;100.00;99027.72;5095892;28;19924;-81
2022/05/12 08:21:13;;;;;;;;;;;;;;;14.83;100.00;99023.59;5077853;28;19928;-81
2022/05/12 08:23:41;;;;;;;;;;;;;;;14.74;100.00;99034.75;5095485;28;20161;-81
2022/05/12 08:27:50;;;;;;;;;;;;;;;14.03;100.00;99043.81;5095179;27;19970;-80
2022/05/12 08:30:17;;;;;;;;;;;;;;;13.98;100.00;99041.56;5072124;28;19931;-80
2022/05/12 08:32:45;;;;;;;;;;;;;;;13.46;100.00;99052.31;5057025;28;19936;-80
2022/05/12 08:35:12;;;;;;;;;;;;;;;13.58;100.00;99057.19;5078523;28;19967;-80
2022/05/12 08:37:39;;;;;;;;;;;;;;;13.59;100.00;99056.72;5077778;28;19928;-82
2022/05/12 08:40:08;;;;;;;;;;;;;;;13.79;100.00;99062.97;5125075;28;19925;-80
2022/05/12 08:42:37;;;;;;;;;;;;;;;13.33;100.00;99057.84;5055797;28;20329;-80
2022/05/12 08:45:06;;;;;;;;;;;;;;;13.33;100.00;99074.69;5090575;28;20408;-80
2022/05/12 08:47:36;;;;;;;;;;;;;;;13.20;100.00;99073.84;5089749;28;19924;-80
2022/05/12 08:50:06;;;;;;;;;;;;;;;13.54;100.00;99073.34;5090243;28;19924;-80
2022/05/12 08:52:33;;;;;;;;;;;;;;;13.47;100.00;99087.56;5088826;28;19932;-80
2022/05/12 08:55:09;;;;;;;;;;;;;;;13.35;100.00;99074.25;5090195;28;19925;-80
2022/05/12 08:57:51;;;;;;;;;;;;;;;13.64;100.00;99083.47;5106215;28;19931;-80
2022/05/12 09:00:19;;;;;;;;;;;;;;;13.66;100.00;99081.03;5122710;28;20337;-80
2022/05/12 09:03:04;;;;;;;;;;;;;;;13.73;100.00;99078.00;5088496;28;19928;-80
2022/05/12 09:05:35;;;;;;;;;;;;;;;13.44;100.00;99085.63;5089807;28;20010;-80
2022/05/12 09:08:06;;;;;;;;;;;;;;;13.77;100.00;99081.50;5089870;28;20425;-80
2022/05/12 09:10:33;;;;;;;;;;;;;;;13.81;100.00;99077.34;5073354;28;20401;-80
2022/05/12 09:13:00;;;;;;;;;;;;;;;13.73;100.00;99073.19;5090001;28;20018;-80
2022/05/12 09:15:31;;;;;;;;;;;;;;;13.62;100.00;99081.13;5091266;28;20047;-80
2022/05/12 09:18:03;;;;;;;;;;;;;;;13.56;100.00;99062.44;5071416;28;20402;-79
2022/05/12 09:20:33;;;;;;;;;;;;;;;14.08;100.00;99080.59;5073871;28;20382;-80
2022/05/12 09:23:01;;;;;;;;;;;;;;;13.83;100.00;99088.13;5089949;28;20447;-80
2022/05/12 09:25:36;;;;;;;;;;;;;;;14.02;100.00;99087.19;5089780;28;19924;-80
2022/05/12 09:28:43;;;;;;;;;;;;;;;13.23;100.00;99103.03;5090415;28;19912;-80
2022/05/12 09:31:13;;;;;;;;;;;;;;;13.61;100.00;99089.97;5105846;28;19924;-80
2022/05/12 09:33:43;;;;;;;;;;;;;;;13.84;100.00;99086.91;5091226;28;19947;-80
2022/05/12 09:36:25;;;;;;;;;;;;;;;13.81;100.00;99087.81;5088967;28;19950;-80
2022/05/12 09:38:55;;;;;;;;;;;;;;;14.19;100.00;99097.13;5089115;28;19967;-80
2022/05/12 09:41:24;;;;;;;;;;;;;;;14.48;100.00;99081.78;5090262;28;19924;-80
2022/05/12 09:43:52;;;;;;;;;;;;;;;14.48;100.00;99075.34;5072419;28;19968;-80
2022/05/12 09:46:21;;;;;;;;;;;;;;;14.22;100.00;99085.00;5072153;28;19925;-80
2022/05/12 09:48:49;;;;;;;;;;;;;;;14.20;100.00;99077.00;5089407;28;19935;-80
2022/05/12 09:51:21;;;;;;;;;;;;;;;14.00;100.00;99073.59;5088278;28;19932;-80
2022/05/12 09:53:49;;;;;;;;;;;;;;;14.24;100.00;99074.91;5072023;28;19925;-80
2022/05/12 09:56:29;;;;;;;;;;;;;;;14.46;100.00;99060.97;5099741;28;20001;-80
2022/05/12 09:59:08;;;;;;;;;;;;;;;14.76;100.00;99056.78;5072845;28;19931;-80
2022/05/12 10:01:49;;;;;;;;;;;;;;;14.70;100.00;99065.03;5088380;28;20400;-80
2022/05/12 10:10:02;;;;;;;;;;;;;;;15.84;100.00;99052.97;5079376;28;19924;-80
2022/05/12 10:12:53;;;;;;;;;;;;;;;15.95;100.00;99061.81;5088344;28;19924;-80
2022/05/12 10:15:21;;;;;;;;;;;;;;;16.33;100.00;99049.53;5081970;28;19976;-80
2022/05/12 10:17:49;;;;;;;;;;;;;;;16.07;100.00;99044.03;5088830;28;19924;-81
2022/05/12 10:20:22;;;;;;;;;;;;;;;15.95;100.00;99030.81;5089321;28;19929;-81
2022/05/12 10:22:59;;;;;;;;;;;;;;;15.28;100.00;99038.09;5071377;28;19939;-80
2022/05/12 10:25:47;;;;;;;;;;;;;;;15.51;100.00;99029.25;5071615;28;19935;-80
2022/05/12 10:28:14;;;;;;;;;;;;;;;15.45;100.00;99036.72;5086488;28;20019;-80
2022/05/12 10:30:46;;;;;;;;;;;;;;;15.10;100.00;99040.75;5089262;28;20022;-80
2022/05/12 10:33:19;;;;;;;;;;;;;;;14.91;100.00;99036.19;5089312;28;19924;-79
2022/05/12 10:36:09;;;;;;;;;;;;;;;14.55;100.00;99035.78;5089221;28;20405;-82
2022/05/12 10:38:49;;;;;;;;;;;;;;;14.33;100.00;99034.88;5070148;28;19978;-80
2022/05/12 10:41:22;;;;;;;;;;;;;;;14.75;100.00;99039.16;5074466;28;19924;-81
2022/05/12 10:43:49;;;;;;;;;;;;;;;15.28;100.00;99040.91;5074409;28;19951;-81
2022/05/12 10:46:35;;;;;;;;;;;;;;;15.37;100.00;99037.41;5075355;28;19931;-81
2022/05/12 10:49:11;;;;;;;;;;;;;;;15.58;100.00;99034.66;5074096;28;19924;-81
2022/05/12 10:51:42;;;;;;;;;;;;;;;15.37;100.00;99031.78;5108382;28;19925;-82
2022/05/12 10:54:16;;;;;;;;;;;;;;;15.89;100.00;99032.66;5075400;28;19924;-81
2022/05/12 10:56:46;;;;;;;;;;;;;;;15.58;100.00;99026.19;5075069;28;20010;-81
2022/05/12 10:59:20;;;;;;;;;;;;;;;15.58;100.00;99029.00;5057334;28;19925;-81
2022/05/12 11:01:51;;;;;;;;;;;;;;;15.88;100.00;99028.28;5057643;28;19994;-81
2022/05/12 11:04:33;;;;;;;;;;;;;;;16.06;100.00;99022.75;5073875;28;19939;-85
2022/05/12 11:07:08;;;;;;;;;;;;;;;15.79;100.00;99014.13;5057438;28;19977;-84
2022/05/12 11:09:45;;;;;;;;;;;;;;;16.11;100.00;99015.72;5057002;28;19968;-85
2022/05/12 11:12:34;;;;;;;;;;;;;;;16.01;100.00;99012.06;5074111;28;19924;-84
2022/05/12 11:15:28;;;;;;;;;;;;;;;15.68;100.00;99002.47;5073843;28;19924;-85
2022/05/12 11:18:04;;;;;;;;;;;;;;;16.23;100.00;98995.13;5055583;28;19928;-84
2022/05/12 11:20:36;;;;;;;;;;;;;;;16.67;100.00;98990.13;5060616;28;19931;-85
2022/05/12 11:23:23;;;;;;;;;;;;;;;16.97;100.00;98977.97;5073946;28;19928;-85
2022/05/12 11:25:53;;;;;;;;;;;;;;;17.24;100.00;98977.97;5070064;28;19931;-85
2022/05/12 11:31:27;;;;;;;;;;;;;;;16.55;100.00;98989.00;5054654;28;19947;-85
2022/05/12 11:33:59;;;;;;;;;;;;;;;16.25;100.00;98987.75;5089522;28;19925;-85
2022/05/12 11:36:56;;;;;;;;;;;;;;;16.29;100.00;98993.25;5073303;28;19924;-84
2022/05/12 11:39:24;;;;;;;;;;;;;;;17.10;100.00;98989.91;5062177;28;20368;-85
2022/05/12 11:42:11;;;;;;;;;;;;;;;17.40;100.00;98989.72;5023758;28;20399;-85
2022/05/12 11:44:53;;;;;;;;;;;;;;;17.70;100.00;98986.00;5056625;28;20307;-85
2022/05/12 11:47:40;;;;;;;;;;;;;;;16.96;100.00;98980.00;5073068;28;19929;-84
2022/05/12 11:50:27;;;;;;;;;;;;;;;16.59;100.00;98967.06;5106169;28;19932;-84
2022/05/12 11:53:11;;;;;;;;;;;;;;;16.30;100.00;98979.97;5040038;28;19924;-84
2022/05/12 11:55:57;;;;;;;;;;;;;;;16.08;100.00;98972.31;5070963;28;19931;-84
2022/05/12 11:58:32;;;;;;;;;;;;;;;15.63;100.00;98985.41;5040104;28;19975;-85
2022/05/12 12:01:01;;;;;;;;;;;;;;;15.34;100.00;98988.41;5072802;28;19925;-83
2022/05/12 12:03:28;;;;;;;;;;;;;;;15.51;100.00;98987.03;5072768;28;20352;-83
2022/05/12 12:05:57;;;;;;;;;;;;;;;15.59;100.00;98996.00;5052773;28;19935;-84
2022/05/12 12:08:30;;;;;;;;;;;;;;;15.89;100.00;98992.41;5053928;28;19951;-84
2022/05/12 12:11:13;;;;;;;;;;;;;;;15.93;100.00;98998.72;5052660;28;19974;-84
2022/05/12 12:13:43;;;;;;;;;;;;;;;15.67;100.00;99014.19;5039710;28;19952;-84
2022/05/12 12:16:11;;;;;;;;;;;;;;;15.74;100.00;99005.47;5055794;28;19928;-84
2022/05/12 12:18:38;;;;;;;;;;;;;;;15.48;100.00;99007.66;5072414;28;19924;-84
2022/05/12 12:21:24;;;;;;;;;;;;;;;15.13;100.00;99014.50;5071779;28;19932;-84
2022/05/12 12:24:19;;;;;;;;;;;;;;;15.08;100.00;99012.28;5090320;28;19939;-84
2022/05/12 12:26:54;;;;;;;;;;;;;;;15.11;100.00;99016.22;5106054;28;19925;-84
2022/05/12 12:29:39;;;;;;;;;;;;;;;15.16;100.00;99002.34;5085384;28;20341;-85
2022/05/12 12:32:25;;;;;;;;;;;;;;;15.33;100.00;99009.38;5123340;28;19924;-84
2022/05/12 12:34:54;;;;;;;;;;;;;;;15.49;100.00;99006.41;5089240;28;19928;-84
2022/05/12 12:37:53;;;;;;;;;;;;;;;16.04;100.00;99004.72;5096131;28;19970;-84
2022/05/12 12:40:32;;;;;;;;;;;;;;;16.77;100.00;98997.34;5059223;28;19924;-82
2022/05/12 12:43:01;;;;;;;;;;;;;;;16.89;100.00;98996.47;5100181;28;19931;-83
2022/05/12 12:45:28;;;;;;;;;;;;;;;17.10;100.00;98978.63;5071869;28;20395;-83
2022/05/12 12:47:57;;;;;;;;;;;;;;;17.01;100.00;98975.78;5051924;28;19932;-83
2022/05/12 12:51:33;;;;;;;;;;;;;;;17.43;100.00;98962.59;5090119;28;19942;-83
2022/05/12 12:57:06;;;;;;;;;;;;;;;16.50;100.00;98961.41;5076917;28;20005;-85
2022/05/12 12:59:36;;;;;;;;;;;;;;;16.93;100.00;98969.66;5069778;28;19932;-85
2022/05/12 13:02:03;;;;;;;;;;;;;;;16.88;100.00;98955.38;5082109;28;20375;-82
2022/05/12 13:04:31;;;;;;;;;;;;;;;17.18;100.00;98962.91;5069517;28;19975;-82
2022/05/12 13:06:59;;;;;;;;;;;;;;;17.59;100.00;98948.97;5081292;28;20027;-82
2022/05/12 13:09:31;;;;;;;;;;;;;;;17.36;100.00;98926.19;5068565;28;19931;-81
2022/05/12 13:12:18;;;;;;;;;;;;;;;17.50;100.00;98943.31;5051637;28;20378;-82
2022/05/12 13:14:47;;;;;;;;;;;;;;;17.86;100.00;98939.63;5068328;28;19931;-82
2022/05/12 13:17:18;;;;;;;;;;;;;;;17.53;100.00;98938.75;5085374;28;20011;-82
2022/05/12 13:19:46;;;;;;;;;;;;;;;17.07;100.00;98935.16;5102505;28;19982;-82